Map

Track Data

SID SEASON NUMBER BASIN SUBBASIN NAME ISO_TIME NATURE LAT LON WMO_WIND WMO_PRES WMO_AGENCY TRACK_TYPE DIST2LAND LANDFALL IFLAG USA_AGENCY USA_ATCF_ID USA_LAT USA_LON USA_RECORD USA_STATUS USA_WIND USA_PRES USA_SSHS USA_R34_NE USA_R34_SE USA_R34_SW USA_R34_NW USA_R50_NE USA_R50_SE USA_R50_SW USA_R50_NW USA_R64_NE USA_R64_SE USA_R64_SW USA_R64_NW USA_POCI USA_ROCI USA_RMW USA_EYE TOKYO_LAT TOKYO_LON TOKYO_GRADE TOKYO_WIND TOKYO_PRES TOKYO_R50_DIR TOKYO_R50_LONG TOKYO_R50_SHORT TOKYO_R30_DIR TOKYO_R30_LONG TOKYO_R30_SHORT TOKYO_LAND CMA_LAT CMA_LON CMA_CAT CMA_WIND CMA_PRES HKO_LAT HKO_LON HKO_CAT HKO_WIND HKO_PRES NEWDELHI_LAT NEWDELHI_LON NEWDELHI_GRADE NEWDELHI_WIND NEWDELHI_PRES NEWDELHI_CI NEWDELHI_DP NEWDELHI_POCI REUNION_LAT REUNION_LON REUNION_TYPE REUNION_WIND REUNION_PRES REUNION_TNUM REUNION_CI REUNION_RMW REUNION_R34_NE REUNION_R34_SE REUNION_R34_SW REUNION_R34_NW REUNION_R50_NE REUNION_R50_SE REUNION_R50_SW REUNION_R50_NW REUNION_R64_NE REUNION_R64_SE REUNION_R64_SW REUNION_R64_NW BOM_LAT BOM_LON BOM_TYPE BOM_WIND BOM_PRES BOM_TNUM BOM_CI BOM_RMW BOM_R34_NE BOM_R34_SE BOM_R34_SW BOM_R34_NW BOM_R50_NE BOM_R50_SE BOM_R50_SW BOM_R50_NW BOM_R64_NE BOM_R64_SE BOM_R64_SW BOM_R64_NW BOM_ROCI BOM_POCI BOM_EYE BOM_POS_METHOD BOM_PRES_METHOD NADI_LAT NADI_LON NADI_CAT NADI_WIND NADI_PRES WELLINGTON_LAT WELLINGTON_LON WELLINGTON_WIND WELLINGTON_PRES DS824_LAT DS824_LON DS824_STAGE DS824_WIND DS824_PRES TD9636_LAT TD9636_LON TD9636_STAGE TD9636_WIND TD9636_PRES TD9635_LAT TD9635_LON TD9635_WIND TD9635_PRES TD9635_ROCI NEUMANN_LAT NEUMANN_LON NEUMANN_CLASS NEUMANN_WIND NEUMANN_PRES MLC_LAT MLC_LON MLC_CLASS MLC_WIND MLC_PRES USA_GUST BOM_GUST BOM_GUST_PER REUNION_GUST REUNION_GUST_PER USA_SEAHGT USA_SEARAD_NE USA_SEARAD_SE USA_SEARAD_SW USA_SEARAD_NW STORM_SPEED STORM_DIR
1896071S26440 1896 9 SI MM NOT_NAMED 1896-03-10 18:00:00 NR -26.3000 80.4000 main 2398 2398 __________O___ -1 -26.3000 80.4000 7 1 312
1896071S26440 1896 9 SI MM NOT_NAMED 1896-03-10 21:00:00 NR -26.2734 80.3558 main 2398 2388 __________P___ -1 -26.2734 80.3558 7 1 272
1896071S26440 1896 9 SI MM NOT_NAMED 1896-03-11 00:00:00 NR -26.2975 80.3093 main 2388 2388 __________P___ -1 -26.2975 80.3093 7 2 210
1896071S26440 1896 9 SI MM NOT_NAMED 1896-03-11 03:00:00 NR -26.4228 80.2582 main 2391 2383 __________P___ -1 -26.4228 80.2582 7 4 193
1896071S26440 1896 9 SI MM NOT_NAMED 1896-03-11 06:00:00 NR -26.7000 80.2000 main 2388 2386 __________O___ -1 -26.7000 80.2000 7 7 189
1896071S26440 1896 9 SI MM NOT_NAMED 1896-03-11 09:00:00 NR -27.1588 80.1345 main 2391 2391 __________P___ -1 -27.1588 80.1345 7 11 186
1896071S26440 1896 9 SI MM NOT_NAMED 1896-03-11 12:00:00 NR -27.7451 80.0711 main 2405 2405 __________P___ -1 -27.7451 80.0711 7 12 185
1896071S26440 1896 9 SI MM NOT_NAMED 1896-03-11 15:00:00 NR -28.3839 80.0221 main 2417 2377 __________P___ -1 -28.3839 80.0221 7 13 183
1896071S26440 1896 9 SI MM NOT_NAMED 1896-03-11 18:00:00 NR -29.0000 80.0000 main 2377 2335 __________O___ -1 -29.0000 80.0000 7 11 0
1896071S26440 1896 9 SI MM NOT_NAMED 1896-03-11 21:00:00 NR -29.4696 80.0090 main 2324 2282 __________P___ -1 -29.4696 80.0090 7 9 177
1896071S26440 1896 9 SI MM NOT_NAMED 1896-03-12 00:00:00 NR -29.9074 80.0477 main 2282 2242 __________P___ -1 -29.9074 80.0477 7 9 174
1896071S26440 1896 9 SI MM NOT_NAMED 1896-03-12 03:00:00 NR -30.3415 80.1125 main 2242 2192 __________P___ -1 -30.3415 80.1125 7 9 172
1896071S26440 1896 9 SI MM NOT_NAMED 1896-03-12 06:00:00 NR -30.8000 80.2000 main 2192 2143 __________O___ -1 -30.8000 80.2000 7 10 171
1896071S26440 1896 9 SI MM NOT_NAMED 1896-03-12 09:00:00 NR -31.3456 80.3029 main 2143 2083 __________P___ -1 -31.3456 80.3029 7 11 170
1896071S26440 1896 9 SI MM NOT_NAMED 1896-03-12 12:00:00 NR -31.9151 80.4268 main 2083 2034 __________P___ -1 -31.9151 80.4268 7 12 169
1896071S26440 1896 9 SI MM NOT_NAMED 1896-03-12 15:00:00 NR -32.4769 80.5624 main 2027 1979 __________P___ -1 -32.4769 80.5624 7 11 168
1896071S26440 1896 9 SI MM NOT_NAMED 1896-03-12 18:00:00 NR -33.0000 80.7000 main 1979 1941 __________O___ -1 -33.0000 80.7000 7 10 167
1896071S26440 1896 9 SI MM NOT_NAMED 1896-03-12 21:00:00 NR -33.4145 80.8104 main 1941 1904 __________P___ -1 -33.4145 80.8104 7 8 167
1896071S26440 1896 9 SI MM NOT_NAMED 1896-03-13 00:00:00 NR -33.7922 80.9224 main 1904 1867 __________P___ -1 -33.7922 80.9224 7 8 165
1896071S26440 1896 9 SI MM NOT_NAMED 1896-03-13 03:00:00 NR -34.1738 81.0482 main 1867 1834 __________P___ -1 -34.1738 81.0482 7 8 164
1896071S26440 1896 9 SI MM NOT_NAMED 1896-03-13 06:00:00 NR -34.6000 81.2000 main 1834 1792 __________O___ -1 -34.6000 81.2000 7 10 164
1896071S26440 1896 9 SI MM NOT_NAMED 1896-03-13 09:00:00 NR -35.1369 81.3917 main 1792 1741 __________P___ -1 -35.1369 81.3917 7 12 163
1896071S26440 1896 9 SI MM NOT_NAMED 1896-03-13 12:00:00 NR -35.7201 81.6119 main 1741 1690 __________P___ -1 -35.7201 81.6119 7 12 162
1896071S26440 1896 9 SI MM NOT_NAMED 1896-03-13 15:00:00 NR -36.3182 81.8513 main 1695 1646 __________P___ -1 -36.3182 81.8513 7 12 162
1896071S26440 1896 9 SI MM NOT_NAMED 1896-03-13 18:00:00 NR -36.9000 82.1000 main 1646 1608 __________O___ -1 -36.9000 82.1000 7 12 161
1896071S26440 1896 9 SI MM NOT_NAMED 1896-03-13 21:00:00 NR -37.4416 82.3494 main 1608 1575 __________P___ -1 -37.4416 82.3494 7 11 159
1896071S26440 1896 9 SI MM NOT_NAMED 1896-03-14 00:00:00 NR -37.9477 82.5984 main 1575 1539 __________P___ -1 -37.9477 82.5984 7 11 158
1896071S26440 1896 9 SI MM NOT_NAMED 1896-03-14 03:00:00 NR -38.4299 82.8483 main 1539 1510 __________P___ -1 -38.4299 82.8483 7 10 158
1896071S26440 1896 9 SI MM NOT_NAMED 1896-03-14 06:00:00 NR -38.9000 83.1000 main 1510 __________O___ -1 -38.9000 83.1000 7 10 157

About IBTrACS Database

This database is a web-friendly format of International Best Track Archive for Climate Stewardship (IBTrACS), a global best track data archive curated by NOAA dating back to 1842.

Updated: 2021-10-08